sensor_id;sensor_type;location;lat;lon;timestamp;pressure;altitude;pressure_sealevel;temperature;humidity
48636;BME280;34429;52.332;5.614;2023-01-29T00:00:05;102947.53;;;3.65;100.00
48636;BME280;34429;52.332;5.614;2023-01-29T00:02:34;102937.66;;;3.69;100.00
48636;BME280;34429;52.332;5.614;2023-01-29T00:05:06;102939.31;;;3.73;100.00
48636;BME280;34429;52.332;5.614;2023-01-29T00:07:35;102934.72;;;3.78;100.00
48636;BME280;34429;52.332;5.614;2023-01-29T00:10:04;102929.56;;;3.72;100.00
48636;BME280;34429;52.332;5.614;2023-01-29T00:12:32;102933.34;;;3.63;100.00
48636;BME280;34429;52.332;5.614;2023-01-29T00:15:01;102924.59;;;3.60;100.00
48636;BME280;34429;52.332;5.614;2023-01-29T00:17:30;102920.88;;;3.65;100.00
48636;BME280;34429;52.332;5.614;2023-01-29T00:19:59;102927.38;;;3.55;100.00
48636;BME280;34429;52.332;5.614;2023-01-29T00:22:31;102924.75;;;3.54;100.00
48636;BME280;34429;52.332;5.614;2023-01-29T00:24:59;102918.41;;;3.58;100.00
48636;BME280;34429;52.332;5.614;2023-01-29T00:27:28;102917.59;;;3.56;100.00
48636;BME280;34429;52.332;5.614;2023-01-29T00:29:56;102911.34;;;3.57;100.00
48636;BME280;34429;52.332;5.614;2023-01-29T00:32:37;102910.16;;;3.68;100.00
48636;BME280;34429;52.332;5.614;2023-01-29T00:35:07;102906.41;;;3.76;100.00
48636;BME280;34429;52.332;5.614;2023-01-29T00:37:38;102908.34;;;3.69;100.00
48636;BME280;34429;52.332;5.614;2023-01-29T00:40:09;102916.03;;;3.81;100.00
48636;BME280;34429;52.332;5.614;2023-01-29T00:42:38;102918.44;;;3.91;100.00
48636;BME280;34429;52.332;5.614;2023-01-29T00:45:18;102903.88;;;3.71;100.00
48636;BME280;34429;52.332;5.614;2023-01-29T00:47:47;102906.28;;;3.80;100.00
48636;BME280;34429;52.332;5.614;2023-01-29T00:50:15;102909.69;;;3.85;100.00
48636;BME280;34429;52.332;5.614;2023-01-29T00:52:46;102895.84;;;3.73;100.00
48636;BME280;34429;52.332;5.614;2023-01-29T00:55:16;102907.28;;;3.76;100.00
48636;BME280;34429;52.332;5.614;2023-01-29T00:57:45;102902.66;;;3.83;100.00
48636;BME280;34429;52.332;5.614;2023-01-29T01:00:15;102904.31;;;3.87;100.00
48636;BME280;34429;52.332;5.614;2023-01-29T01:02:44;102896.13;;;3.95;100.00
48636;BME280;34429;52.332;5.614;2023-01-29T01:05:25;102891.75;;;3.92;100.00
48636;BME280;34429;52.332;5.614;2023-01-29T01:07:57;102898.38;;;3.77;100.00
48636;BME280;34429;52.332;5.614;2023-01-29T01:10:27;102889.50;;;3.77;100.00
48636;BME280;34429;52.332;5.614;2023-01-29T01:12:57;102879.75;;;3.77;100.00
48636;BME280;34429;52.332;5.614;2023-01-29T01:15:28;102877.16;;;3.74;100.00
48636;BME280;34429;52.332;5.614;2023-01-29T01:17:58;102879.69;;;3.79;100.00
48636;BME280;34429;52.332;5.614;2023-01-29T01:20:28;102894.19;;;3.68;100.00
48636;BME280;34429;52.332;5.614;2023-01-29T01:22:59;102894.72;;;3.81;100.00
48636;BME280;34429;52.332;5.614;2023-01-29T01:25:27;102894.00;;;3.75;100.00
48636;BME280;34429;52.332;5.614;2023-01-29T01:27:57;102902.00;;;3.75;100.00
48636;BME280;34429;52.332;5.614;2023-01-29T01:30:26;102900.19;;;3.75;100.00
48636;BME280;34429;52.332;5.614;2023-01-29T01:32:54;102902.84;;;3.75;100.00
48636;BME280;34429;52.332;5.614;2023-01-29T01:35:23;102902.75;;;3.80;100.00
48636;BME280;34429;52.332;5.614;2023-01-29T01:37:51;102896.38;;;3.85;100.00
48636;BME280;34429;52.332;5.614;2023-01-29T01:40:23;102897.38;;;3.81;100.00
48636;BME280;34429;52.332;5.614;2023-01-29T01:42:54;102896.53;;;3.79;100.00
48636;BME280;34429;52.332;5.614;2023-01-29T01:45:25;102897.31;;;3.84;100.00
48636;BME280;34429;52.332;5.614;2023-01-29T01:47:58;102898.28;;;3.80;100.00
48636;BME280;34429;52.332;5.614;2023-01-29T01:50:31;102896.75;;;3.72;100.00
48636;BME280;34429;52.332;5.614;2023-01-29T01:53:05;102896.72;;;3.73;100.00
48636;BME280;34429;52.332;5.614;2023-01-29T01:55:41;102895.66;;;3.79;100.00
48636;BME280;34429;52.332;5.614;2023-01-29T01:58:17;102895.88;;;3.71;100.00
48636;BME280;34429;52.332;5.614;2023-01-29T02:00:49;102900.44;;;3.66;100.00
48636;BME280;34429;52.332;5.614;2023-01-29T02:03:18;102899.38;;;3.73;100.00
48636;BME280;34429;52.332;5.614;2023-01-29T02:06:02;102904.47;;;3.81;100.00
48636;BME280;34429;52.332;5.614;2023-01-29T02:08:48;102905.19;;;3.88;100.00
48636;BME280;34429;52.332;5.614;2023-01-29T02:11:35;102895.75;;;3.76;100.00
48636;BME280;34429;52.332;5.614;2023-01-29T02:14:03;102908.69;;;3.90;100.00
48636;BME280;34429;52.332;5.614;2023-01-29T02:16:33;102901.72;;;3.84;100.00
48636;BME280;34429;52.332;5.614;2023-01-29T02:19:01;102898.38;;;3.77;100.00
48636;BME280;34429;52.332;5.614;2023-01-29T02:21:43;102904.66;;;3.75;100.00
48636;BME280;34429;52.332;5.614;2023-01-29T02:24:35;102905.28;;;3.84;100.00
48636;BME280;34429;52.332;5.614;2023-01-29T02:27:12;102904.69;;;3.73;100.00
48636;BME280;34429;52.332;5.614;2023-01-29T02:29:54;102914.38;;;3.77;100.00
48636;BME280;34429;52.332;5.614;2023-01-29T02:32:29;102916.81;;;3.85;100.00
48636;BME280;34429;52.332;5.614;2023-01-29T02:35:09;102915.13;;;3.81;100.00
48636;BME280;34429;52.332;5.614;2023-01-29T02:38:06;102912.88;;;3.98;100.00
48636;BME280;34429;52.332;5.614;2023-01-29T02:40:40;102912.44;;;3.82;100.00
48636;BME280;34429;52.332;5.614;2023-01-29T02:43:21;102918.34;;;3.94;100.00
48636;BME280;34429;52.332;5.614;2023-01-29T02:46:00;102924.50;;;3.96;100.00
48636;BME280;34429;52.332;5.614;2023-01-29T02:48:38;102913.16;;;3.89;100.00
48636;BME280;34429;52.332;5.614;2023-01-29T02:51:15;102910.72;;;3.81;100.00
48636;BME280;34429;52.332;5.614;2023-01-29T02:53:52;102918.91;;;3.72;100.00
48636;BME280;34429;52.332;5.614;2023-01-29T02:56:26;102909.25;;;3.70;100.00
48636;BME280;34429;52.332;5.614;2023-01-29T02:58:59;102904.66;;;3.75;100.00
48636;BME280;34429;52.332;5.614;2023-01-29T03:01:34;102895.97;;;3.66;100.00
48636;BME280;34429;52.332;5.614;2023-01-29T03:04:08;102895.84;;;3.73;100.00
48636;BME280;34429;52.332;5.614;2023-01-29T03:06:41;102889.88;;;3.63;100.00
48636;BME280;34429;52.332;5.614;2023-01-29T03:09:15;102885.50;;;3.60;100.00
48636;BME280;34429;52.332;5.614;2023-01-29T03:11:50;102888.22;;;3.59;100.00
48636;BME280;34429;52.332;5.614;2023-01-29T03:14:21;102885.53;;;3.59;100.00
48636;BME280;34429;52.332;5.614;2023-01-29T03:17:15;102882.78;;;3.62;100.00
48636;BME280;34429;52.332;5.614;2023-01-29T03:19:46;102880.06;;;3.65;100.00
48636;BME280;34429;52.332;5.614;2023-01-29T03:22:16;102877.16;;;3.74;100.00
48636;BME280;34429;52.332;5.614;2023-01-29T03:24:50;102875.13;;;3.82;100.00
48636;BME280;34429;52.332;5.614;2023-01-29T03:27:35;102866.50;;;3.74;100.00
48636;BME280;34429;52.332;5.614;2023-01-29T03:30:18;102857.06;;;3.94;100.00
48636;BME280;34429;52.332;5.614;2023-01-29T03:33:06;102850.97;;;3.89;100.00
48636;BME280;34429;52.332;5.614;2023-01-29T03:35:37;102838.22;;;3.70;100.00
48636;BME280;34429;52.332;5.614;2023-01-29T03:38:09;102846.66;;;3.86;100.00
48636;BME280;34429;52.332;5.614;2023-01-29T03:40:46;102852.00;;;3.84;100.00
48636;BME280;34429;52.332;5.614;2023-01-29T03:43:23;102842.59;;;3.73;100.00
48636;BME280;34429;52.332;5.614;2023-01-29T03:46:03;102840.47;;;3.84;100.00
48636;BME280;34429;52.332;5.614;2023-01-29T03:48:39;102838.66;;;3.86;100.00
48636;BME280;34429;52.332;5.614;2023-01-29T03:51:21;102832.44;;;3.85;100.00
48636;BME280;34429;52.332;5.614;2023-01-29T03:53:55;102835.41;;;3.75;100.00
48636;BME280;34429;52.332;5.614;2023-01-29T03:56:35;102839.69;;;3.80;100.00
48636;BME280;34429;52.332;5.614;2023-01-29T03:59:15;102825.78;;;3.69;100.00
48636;BME280;34429;52.332;5.614;2023-01-29T04:01:47;102831.69;;;3.80;100.00
48636;BME280;34429;52.332;5.614;2023-01-29T04:04:23;102824.22;;;3.62;100.00
48636;BME280;34429;52.332;5.614;2023-01-29T04:06:53;102826.16;;;3.57;100.00
48636;BME280;34429;52.332;5.614;2023-01-29T04:09:29;102820.13;;;3.81;100.00
48636;BME280;34429;52.332;5.614;2023-01-29T04:12:02;102821.22;;;3.74;100.00
48636;BME280;34429;52.332;5.614;2023-01-29T04:14:34;102812.69;;;3.93;100.00
48636;BME280;34429;52.332;5.614;2023-01-29T04:17:08;102815.50;;;3.88;100.00
48636;BME280;34429;52.332;5.614;2023-01-29T04:19:42;102820.34;;;3.74;100.00
48636;BME280;34429;52.332;5.614;2023-01-29T04:22:14;102819.97;;;3.88;100.00
48636;BME280;34429;52.332;5.614;2023-01-29T04:24:44;102822.81;;;3.81;100.00
48636;BME280;34429;52.332;5.614;2023-01-29T04:27:25;102817.75;;;3.71;100.00
48636;BME280;34429;52.332;5.614;2023-01-29T04:30:06;102809.63;;;3.75;100.00
48636;BME280;34429;52.332;5.614;2023-01-29T04:32:46;102811.34;;;3.78;100.00
48636;BME280;34429;52.332;5.614;2023-01-29T04:35:26;102812.97;;;3.83;100.00
48636;BME280;34429;52.332;5.614;2023-01-29T04:38:05;102812.00;;;3.86;100.00
48636;BME280;34429;52.332;5.614;2023-01-29T04:40:42;102809.25;;;3.89;100.00
48636;BME280;34429;52.332;5.614;2023-01-29T04:43:16;102801.00;;;3.67;100.00
48636;BME280;34429;52.332;5.614;2023-01-29T04:45:56;102801.09;;;3.64;100.00
48636;BME280;34429;52.332;5.614;2023-01-29T04:48:29;102795.47;;;3.75;100.00
48636;BME280;34429;52.332;5.614;2023-01-29T04:51:09;102801.09;;;3.64;100.00
48636;BME280;34429;52.332;5.614;2023-01-29T04:53:44;102792.88;;;3.72;100.00
48636;BME280;34429;52.332;5.614;2023-01-29T04:56:18;102785.84;;;3.69;100.00
48636;BME280;34429;52.332;5.614;2023-01-29T04:58:51;102785.81;;;3.71;100.00
48636;BME280;34429;52.332;5.614;2023-01-29T05:01:25;102786.75;;;3.70;100.00
48636;BME280;34429;52.332;5.614;2023-01-29T05:03:59;102782.91;;;3.78;100.00
48636;BME280;34429;52.332;5.614;2023-01-29T05:06:32;102779.63;;;3.70;100.00
48636;BME280;34429;52.332;5.614;2023-01-29T05:09:00;102782.31;;;3.68;100.00
48636;BME280;34429;52.332;5.614;2023-01-29T05:11:30;102779.44;;;3.76;100.00
48636;BME280;34429;52.332;5.614;2023-01-29T05:14:02;102780.38;;;3.74;100.00
48636;BME280;34429;52.332;5.614;2023-01-29T05:16:37;102787.69;;;3.67;100.00
48636;BME280;34429;52.332;5.614;2023-01-29T05:19:09;102794.88;;;3.63;100.00
48636;BME280;34429;52.332;5.614;2023-01-29T05:21:42;102797.69;;;3.59;100.00
48636;BME280;34429;52.332;5.614;2023-01-29T05:24:13;102793.06;;;3.65;100.00
48636;BME280;34429;52.332;5.614;2023-01-29T05:26:43;102799.97;;;3.73;100.00
48636;BME280;34429;52.332;5.614;2023-01-29T05:29:26;102794.56;;;3.76;100.00
48636;BME280;34429;52.332;5.614;2023-01-29T05:31:54;102802.75;;;3.99;100.00
48636;BME280;34429;52.332;5.614;2023-01-29T05:34:22;102812.59;;;3.96;100.00
48636;BME280;34429;52.332;5.614;2023-01-29T05:36:53;102814.00;;;3.78;100.00
48636;BME280;34429;52.332;5.614;2023-01-29T05:39:22;102804.22;;;3.78;100.00
48636;BME280;34429;52.332;5.614;2023-01-29T05:41:50;102809.41;;;3.84;100.00
48636;BME280;34429;52.332;5.614;2023-01-29T05:44:18;102803.97;;;3.88;100.00
48636;BME280;34429;52.332;5.614;2023-01-29T05:46:48;102787.72;;;3.97;100.00
48636;BME280;34429;52.332;5.614;2023-01-29T05:49:17;102779.72;;;3.97;100.00
48636;BME280;34429;52.332;5.614;2023-01-29T05:51:46;102769.88;;;3.99;100.00
48636;BME280;34429;52.332;5.614;2023-01-29T05:54:17;102770.88;;;3.96;100.00
48636;BME280;34429;52.332;5.614;2023-01-29T05:56:46;102763.81;;;3.94;100.00
48636;BME280;34429;52.332;5.614;2023-01-29T05:59:14;102772.69;;;3.94;100.00
48636;BME280;34429;52.332;5.614;2023-01-29T06:01:42;102769.63;;;4.08;100.00
48636;BME280;34429;52.332;5.614;2023-01-29T06:04:11;102757.94;;;3.82;100.00
48636;BME280;34429;52.332;5.614;2023-01-29T06:06:39;102751.31;;;3.66;100.00
48636;BME280;34429;52.332;5.614;2023-01-29T06:09:09;102752.41;;;3.90;100.00
48636;BME280;34429;52.332;5.614;2023-01-29T06:11:40;102751.09;;;4.03;100.00
48636;BME280;34429;52.332;5.614;2023-01-29T06:14:08;102755.94;;;3.91;100.00
48636;BME280;34429;52.332;5.614;2023-01-29T06:16:37;102741.53;;;3.66;100.00
48636;BME280;34429;52.332;5.614;2023-01-29T06:19:05;102741.47;;;3.70;100.00
48636;BME280;34429;52.332;5.614;2023-01-29T06:21:34;102738.66;;;3.74;100.00
48636;BME280;34429;52.332;5.614;2023-01-29T06:24:02;102735.25;;;3.69;100.00
48636;BME280;34429;52.332;5.614;2023-01-29T06:26:31;102725.78;;;3.89;100.00
48636;BME280;34429;52.332;5.614;2023-01-29T06:29:01;102733.16;;;3.80;100.00
48636;BME280;34429;52.332;5.614;2023-01-29T06:31:30;102725.44;;;3.71;100.00
48636;BME280;34429;52.332;5.614;2023-01-29T06:33:58;102729.38;;;3.88;100.00
48636;BME280;34429;52.332;5.614;2023-01-29T06:36:27;102735.44;;;3.63;100.00
48636;BME280;34429;52.332;5.614;2023-01-29T06:38:55;102743.75;;;3.82;100.00
48636;BME280;34429;52.332;5.614;2023-01-29T06:41:23;102745.47;;;3.84;100.00
48636;BME280;34429;52.332;5.614;2023-01-29T06:43:53;102735.34;;;3.66;100.00
48636;BME280;34429;52.332;5.614;2023-01-29T06:46:23;102736.25;;;3.65;100.00
48636;BME280;34429;52.332;5.614;2023-01-29T06:48:52;102745.72;;;3.75;100.00
48636;BME280;34429;52.332;5.614;2023-01-29T06:51:20;102744.16;;;3.68;100.00
48636;BME280;34429;52.332;5.614;2023-01-29T06:53:48;102735.97;;;3.76;100.00
48636;BME280;34429;52.332;5.614;2023-01-29T06:56:19;102734.34;;;3.70;100.00
48636;BME280;34429;52.332;5.614;2023-01-29T06:58:47;102740.53;;;3.71;100.00
48636;BME280;34429;52.332;5.614;2023-01-29T07:01:15;102735.16;;;3.72;100.00
48636;BME280;34429;52.332;5.614;2023-01-29T07:03:48;102728.78;;;3.78;100.00
48636;BME280;34429;52.332;5.614;2023-01-29T07:06:16;102737.09;;;3.67;100.00
48636;BME280;34429;52.332;5.614;2023-01-29T07:08:45;102726.53;;;3.64;100.00
48636;BME280;34429;52.332;5.614;2023-01-29T07:11:13;102717.75;;;3.60;100.00
48636;BME280;34429;52.332;5.614;2023-01-29T07:13:41;102717.56;;;3.66;100.00
48636;BME280;34429;52.332;5.614;2023-01-29T07:16:09;102710.75;;;3.88;100.00
48636;BME280;34429;52.332;5.614;2023-01-29T07:18:38;102722.25;;;3.88;100.00
48636;BME280;34429;52.332;5.614;2023-01-29T07:21:09;102720.03;;;3.74;100.00
48636;BME280;34429;52.332;5.614;2023-01-29T07:23:37;102725.06;;;3.54;100.00
48636;BME280;34429;52.332;5.614;2023-01-29T07:26:06;102723.88;;;3.64;100.00
48636;BME280;34429;52.332;5.614;2023-01-29T07:28:35;102733.00;;;3.55;100.00
48636;BME280;34429;52.332;5.614;2023-01-29T07:31:04;102728.09;;;3.71;100.00
48636;BME280;34429;52.332;5.614;2023-01-29T07:33:33;102716.94;;;3.58;100.00
48636;BME280;34429;52.332;5.614;2023-01-29T07:36:09;102723.94;;;3.62;100.00
48636;BME280;34429;52.332;5.614;2023-01-29T07:38:37;102711.25;;;3.71;100.00
48636;BME280;34429;52.332;5.614;2023-01-29T07:41:06;102698.53;;;3.50;100.00
48636;BME280;34429;52.332;5.614;2023-01-29T07:43:34;102706.09;;;3.64;100.00
48636;BME280;34429;52.332;5.614;2023-01-29T07:46:03;102697.16;;;3.67;100.00
48636;BME280;34429;52.332;5.614;2023-01-29T07:48:32;102690.03;;;3.67;100.00
48636;BME280;34429;52.332;5.614;2023-01-29T07:51:00;102691.72;;;3.70;100.00
48636;BME280;34429;52.332;5.614;2023-01-29T07:53:31;102696.72;;;3.81;100.00
48636;BME280;34429;52.332;5.614;2023-01-29T07:56:00;102692.91;;;3.90;100.00
48636;BME280;34429;52.332;5.614;2023-01-29T07:58:29;102684.47;;;3.75;100.00
48636;BME280;34429;52.332;5.614;2023-01-29T08:00:57;102695.47;;;3.93;100.00
48636;BME280;34429;52.332;5.614;2023-01-29T08:03:25;102695.75;;;3.83;100.00
48636;BME280;34429;52.332;5.614;2023-01-29T08:05:54;102695.88;;;3.80;100.00
48636;BME280;34429;52.332;5.614;2023-01-29T08:08:24;102697.53;;;3.84;100.00
48636;BME280;34429;52.332;5.614;2023-01-29T08:10:55;102684.81;;;3.93;100.00
48636;BME280;34429;52.332;5.614;2023-01-29T08:13:23;102694.31;;;4.01;100.00
48636;BME280;34429;52.332;5.614;2023-01-29T08:15:52;102690.38;;;3.85;100.00
48636;BME280;34429;52.332;5.614;2023-01-29T08:18:20;102687.34;;;3.97;100.00
48636;BME280;34429;52.332;5.614;2023-01-29T08:20:48;102686.75;;;3.88;100.00
48636;BME280;34429;52.332;5.614;2023-01-29T08:23:17;102685.22;;;3.80;100.00
48636;BME280;34429;52.332;5.614;2023-01-29T08:25:45;102671.88;;;3.80;100.00
48636;BME280;34429;52.332;5.614;2023-01-29T08:28:16;102661.34;;;3.77;100.00
48636;BME280;34429;52.332;5.614;2023-01-29T08:30:44;102667.28;;;3.85;100.00
48636;BME280;34429;52.332;5.614;2023-01-29T08:33:13;102666.81;;;4.01;100.00
48636;BME280;34429;52.332;5.614;2023-01-29T08:35:41;102667.19;;;3.89;100.00
48636;BME280;34429;52.332;5.614;2023-01-29T08:38:09;102667.56;;;3.76;100.00
48636;BME280;34429;52.332;5.614;2023-01-29T08:40:38;102674.66;;;3.77;100.00
48636;BME280;34429;52.332;5.614;2023-01-29T08:43:07;102678.03;;;3.82;100.00
48636;BME280;34429;52.332;5.614;2023-01-29T08:45:41;102662.59;;;3.94;100.00
48636;BME280;34429;52.332;5.614;2023-01-29T08:48:10;102657.69;;;4.08;100.00
48636;BME280;34429;52.332;5.614;2023-01-29T08:50:38;102652.47;;;4.05;100.00
48636;BME280;34429;52.332;5.614;2023-01-29T08:53:07;102656.03;;;4.04;100.00
48636;BME280;34429;52.332;5.614;2023-01-29T08:55:36;102647.25;;;4.02;100.00
48636;BME280;34429;52.332;5.614;2023-01-29T08:58:05;102643.03;;;3.95;100.00
48636;BME280;34429;52.332;5.614;2023-01-29T09:00:33;102641.06;;;4.00;100.00
48636;BME280;34429;52.332;5.614;2023-01-29T09:03:04;102640.72;;;4.11;100.00
48636;BME280;34429;52.332;5.614;2023-01-29T09:05:34;102647.31;;;3.99;100.00
48636;BME280;34429;52.332;5.614;2023-01-29T09:08:03;102643.59;;;4.04;100.00
48636;BME280;34429;52.332;5.614;2023-01-29T09:10:31;102640.69;;;4.12;100.00
48636;BME280;34429;52.332;5.614;2023-01-29T09:13:01;102637.19;;;4.10;100.00
48636;BME280;34429;52.332;5.614;2023-01-29T09:15:29;102639.47;;;4.23;100.00
48636;BME280;34429;52.332;5.614;2023-01-29T09:18:04;102643.84;;;4.24;100.00
48636;BME280;34429;52.332;5.614;2023-01-29T09:20:33;102639.19;;;4.03;100.00
48636;BME280;34429;52.332;5.614;2023-01-29T09:23:03;102650.50;;;4.10;100.00
48636;BME280;34429;52.332;5.614;2023-01-29T09:25:31;102652.91;;;4.18;100.00
48636;BME280;34429;52.332;5.614;2023-01-29T09:27:59;102649.91;;;4.29;100.00
48636;BME280;34429;52.332;5.614;2023-01-29T09:30:28;102654.88;;;4.39;100.00
48636;BME280;34429;52.332;5.614;2023-01-29T09:32:59;102653.41;;;4.31;100.00
48636;BME280;34429;52.332;5.614;2023-01-29T09:35:30;102652.38;;;4.35;100.00
48636;BME280;34429;52.332;5.614;2023-01-29T09:37:58;102652.78;;;4.23;100.00
48636;BME280;34429;52.332;5.614;2023-01-29T09:40:34;102653.72;;;4.21;100.00
48636;BME280;34429;52.332;5.614;2023-01-29T09:43:09;102653.72;;;4.21;100.00
48636;BME280;34429;52.332;5.614;2023-01-29T09:45:50;102649.88;;;4.30;100.00
48636;BME280;34429;52.332;5.614;2023-01-29T09:48:21;102652.16;;;4.14;100.00
48636;BME280;34429;52.332;5.614;2023-01-29T09:50:55;102645.91;;;4.15;100.00
48636;BME280;34429;52.332;5.614;2023-01-29T09:53:29;102641.19;;;4.24;100.00
48636;BME280;34429;52.332;5.614;2023-01-29T09:56:01;102642.72;;;4.31;100.00
48636;BME280;34429;52.332;5.614;2023-01-29T09:58:33;102649.28;;;4.20;100.00
48636;BME280;34429;52.332;5.614;2023-01-29T10:01:11;102639.22;;;4.30;100.00
48636;BME280;34429;52.332;5.614;2023-01-29T10:04:06;102630.03;;;4.39;100.00
48636;BME280;34429;52.332;5.614;2023-01-29T10:06:57;102632.06;;;4.31;100.00
48636;BME280;34429;52.332;5.614;2023-01-29T10:09:50;102640.22;;;4.26;100.00
48636;BME280;34429;52.332;5.614;2023-01-29T10:12:47;102619.38;;;4.39;100.00
48636;BME280;34429;52.332;5.614;2023-01-29T10:15:31;102624.38;;;4.48;100.00
48636;BME280;34429;52.332;5.614;2023-01-29T10:18:11;102615.47;;;4.49;100.00
48636;BME280;34429;52.332;5.614;2023-01-29T10:20:52;102618.34;;;4.43;100.00
48636;BME280;34429;52.332;5.614;2023-01-29T10:23:26;102618.00;;;4.52;100.00
48636;BME280;34429;52.332;5.614;2023-01-29T10:25:55;102606.44;;;4.52;100.00
48636;BME280;34429;52.332;5.614;2023-01-29T10:28:28;102603.25;;;4.42;100.00
48636;BME280;34429;52.332;5.614;2023-01-29T10:31:01;102598.09;;;4.63;100.00
48636;BME280;34429;52.332;5.614;2023-01-29T10:33:36;102593.78;;;4.59;100.00
48636;BME280;34429;52.332;5.614;2023-01-29T10:36:09;102592.47;;;4.70;100.00
48636;BME280;34429;52.332;5.614;2023-01-29T10:38:45;102595.72;;;4.55;100.00
48636;BME280;34429;52.332;5.614;2023-01-29T10:41:30;102596.63;;;4.54;100.00
48636;BME280;34429;52.332;5.614;2023-01-29T10:44:12;102591.81;;;4.64;100.00
48636;BME280;34429;52.332;5.614;2023-01-29T10:46:54;102589.97;;;4.41;100.00
48636;BME280;34429;52.332;5.614;2023-01-29T10:49:36;102588.06;;;4.44;100.00
48636;BME280;34429;52.332;5.614;2023-01-29T10:52:18;102592.75;;;4.63;100.00
48636;BME280;34429;52.332;5.614;2023-01-29T10:55:02;102581.38;;;4.57;100.00
48636;BME280;34429;52.332;5.614;2023-01-29T10:57:51;102582.38;;;4.55;100.00
48636;BME280;34429;52.332;5.614;2023-01-29T11:00:24;102574.38;;;4.55;100.00
48636;BME280;34429;52.332;5.614;2023-01-29T11:02:54;102578.75;;;4.56;100.00
48636;BME280;34429;52.332;5.614;2023-01-29T11:05:26;102564.78;;;4.49;100.00
48636;BME280;34429;52.332;5.614;2023-01-29T11:08:02;102559.19;;;4.57;100.00
48636;BME280;34429;52.332;5.614;2023-01-29T11:10:37;102559.94;;;4.61;100.00
48636;BME280;34429;52.332;5.614;2023-01-29T11:13:11;102554.00;;;4.52;100.00
48636;BME280;34429;52.332;5.614;2023-01-29T11:15:41;102552.75;;;4.63;100.00
48636;BME280;34429;52.332;5.614;2023-01-29T11:18:11;102546.25;;;4.46;100.00
48636;BME280;34429;52.332;5.614;2023-01-29T11:20:41;102546.25;;;4.46;100.00
48636;BME280;34429;52.332;5.614;2023-01-29T11:23:24;102554.69;;;4.57;100.00
48636;BME280;34429;52.332;5.614;2023-01-29T11:25:58;102552.25;;;4.51;100.00
48636;BME280;34429;52.332;5.614;2023-01-29T11:28:36;102551.34;;;4.52;100.00
48636;BME280;34429;52.332;5.614;2023-01-29T11:31:15;102550.38;;;4.55;100.00
48636;BME280;34429;52.332;5.614;2023-01-29T11:33:44;102554.06;;;4.51;100.00
48636;BME280;34429;52.332;5.614;2023-01-29T11:36:29;102543.22;;;4.55;100.00
48636;BME280;34429;52.332;5.614;2023-01-29T11:39:09;102536.03;;;4.57;100.00
48636;BME280;34429;52.332;5.614;2023-01-29T11:41:46;102531.41;;;4.63;100.00
48636;BME280;34429;52.332;5.614;2023-01-29T11:44:19;102526.31;;;4.56;100.00
48636;BME280;34429;52.332;5.614;2023-01-29T11:46:48;102522.94;;;4.51;100.00
48636;BME280;34429;52.332;5.614;2023-01-29T11:49:21;102516.75;;;4.51;100.00
48636;BME280;34429;52.332;5.614;2023-01-29T11:51:54;102513.63;;;4.63;100.00
48636;BME280;34429;52.332;5.614;2023-01-29T11:54:27;102509.84;;;4.69;100.00
48636;BME280;34429;52.332;5.614;2023-01-29T11:56:59;102507.00;;;4.73;100.00
48636;BME280;34429;52.332;5.614;2023-01-29T11:59:38;102500.69;;;4.76;100.00
48636;BME280;34429;52.332;5.614;2023-01-29T12:02:28;102498.47;;;4.64;100.00
48636;BME280;34429;52.332;5.614;2023-01-29T12:05:01;102495.22;;;4.55;100.00
48636;BME280;34429;52.332;5.614;2023-01-29T12:07:31;102499.72;;;4.55;100.00
48636;BME280;34429;52.332;5.614;2023-01-29T12:10:00;102487.28;;;4.54;100.00
48636;BME280;34429;52.332;5.614;2023-01-29T12:12:38;102479.81;;;4.64;100.00
48636;BME280;34429;52.332;5.614;2023-01-29T12:15:15;102480.56;;;4.67;100.00
48636;BME280;34429;52.332;5.614;2023-01-29T12:17:51;102471.41;;;4.74;100.00
48636;BME280;34429;52.332;5.614;2023-01-29T12:20:26;102462.94;;;4.63;100.00
48636;BME280;34429;52.332;5.614;2023-01-29T12:23:03;102462.19;;;4.60;100.00
48636;BME280;34429;52.332;5.614;2023-01-29T12:25:39;102451.41;;;4.63;100.00
48636;BME280;34429;52.332;5.614;2023-01-29T12:28:21;102452.41;;;4.60;100.00
48636;BME280;34429;52.332;5.614;2023-01-29T12:31:02;102447.19;;;4.57;100.00
48636;BME280;34429;52.332;5.614;2023-01-29T12:33:38;102440.50;;;4.45;100.00
48636;BME280;34429;52.332;5.614;2023-01-29T12:36:15;102434.38;;;4.43;100.00
48636;BME280;34429;52.332;5.614;2023-01-29T12:38:44;102431.84;;;4.38;100.00
48636;BME280;34429;52.332;5.614;2023-01-29T12:41:30;102424.34;;;4.50;100.00
48636;BME280;34429;52.332;5.614;2023-01-29T12:44:09;102413.06;;;4.42;100.00
48636;BME280;34429;52.332;5.614;2023-01-29T12:46:43;102403.00;;;4.26;100.00
48636;BME280;34429;52.332;5.614;2023-01-29T12:49:21;102398.03;;;4.17;100.00
48636;BME280;34429;52.332;5.614;2023-01-29T12:51:56;102386.16;;;4.26;100.00
48636;BME280;34429;52.332;5.614;2023-01-29T12:54:32;102380.34;;;4.14;100.00
48636;BME280;34429;52.332;5.614;2023-01-29T12:57:07;102370.31;;;4.21;100.00
48636;BME280;34429;52.332;5.614;2023-01-29T12:59:43;102357.63;;;4.28;100.00
48636;BME280;34429;52.332;5.614;2023-01-29T13:02:19;102355.34;;;4.18;100.00
48636;BME280;34429;52.332;5.614;2023-01-29T13:04:56;102358.72;;;4.22;100.00
48636;BME280;34429;52.332;5.614;2023-01-29T13:07:30;102344.44;;;4.25;100.00
48636;BME280;34429;52.332;5.614;2023-01-29T13:10:04;102337.88;;;4.33;100.00
48636;BME280;34429;52.332;5.614;2023-01-29T13:12:35;102328.06;;;4.34;100.00
48636;BME280;34429;52.332;5.614;2023-01-29T13:15:11;102320.66;;;4.42;100.00
48636;BME280;34429;52.332;5.614;2023-01-29T13:17:44;102320.09;;;4.34;100.00
48636;BME280;34429;52.332;5.614;2023-01-29T13:20:17;102316.00;;;4.47;100.00